createdAt,value
2023-05-11T00:01:32.760Z,13.20
2023-05-11T00:04:55.600Z,13.30
2023-05-11T00:08:17.550Z,13.30
2023-05-11T00:11:39.422Z,13.30
2023-05-11T00:15:00.970Z,13.30
2023-05-11T00:18:23.017Z,13.20
2023-05-11T00:21:45.983Z,13.10
2023-05-11T00:25:08.512Z,13.20
2023-05-11T00:28:30.044Z,13.10
2023-05-11T00:31:51.593Z,13.10
2023-05-11T00:35:13.555Z,13.10
2023-05-11T00:38:40.713Z,12.90
2023-05-11T00:42:02.741Z,12.80
2023-05-11T00:45:24.625Z,12.90
2023-05-11T00:48:46.233Z,13.00
2023-05-11T00:52:07.880Z,13.10
2023-05-11T00:55:31.422Z,13.20
2023-05-11T00:58:53.336Z,13.00
2023-05-11T01:02:14.676Z,13.10
2023-05-11T01:05:45.237Z,13.00
2023-05-11T01:09:13.256Z,13.10
2023-05-11T01:12:46.649Z,13.10
2023-05-11T01:16:13.513Z,13.20
2023-05-11T01:19:43.082Z,13.20
2023-05-11T01:23:31.117Z,13.20
2023-05-11T01:27:22.905Z,13.20
2023-05-11T01:30:50.601Z,13.20
2023-05-11T01:34:16.667Z,13.20
2023-05-11T01:37:42.469Z,13.00
2023-05-11T01:41:10.907Z,12.90
2023-05-11T01:44:34.197Z,12.80
2023-05-11T01:47:58.331Z,13.00
2023-05-11T01:51:21.144Z,13.00
2023-05-11T01:54:44.746Z,13.00
2023-05-11T01:58:09.645Z,13.10
2023-05-11T02:01:32.518Z,13.00
2023-05-11T02:04:56.668Z,13.00
2023-05-11T02:08:20.804Z,12.90
2023-05-11T02:11:44.647Z,12.90
2023-05-11T02:15:07.900Z,13.00
2023-05-11T02:18:30.317Z,12.90
2023-05-11T02:21:55.656Z,12.90
2023-05-11T02:25:18.349Z,12.90
2023-05-11T02:28:40.044Z,12.90
2023-05-11T02:32:08.871Z,12.90
2023-05-11T02:35:33.978Z,12.80
2023-05-11T02:39:03.564Z,12.90
2023-05-11T02:42:26.103Z,13.00
2023-05-11T02:45:49.114Z,12.90
2023-05-11T02:49:13.167Z,12.90
2023-05-11T02:52:35.566Z,12.90
2023-05-11T02:55:58.928Z,12.80
2023-05-11T02:59:21.980Z,12.80
2023-05-11T03:02:43.551Z,12.80
2023-05-11T03:06:05.486Z,12.90
2023-05-11T03:09:27.092Z,12.90
2023-05-11T03:12:49.836Z,12.90
2023-05-11T03:16:13.727Z,12.90
2023-05-11T03:19:35.795Z,12.90
2023-05-11T03:22:57.537Z,12.80
2023-05-11T03:26:21.187Z,12.90
2023-05-11T03:29:45.291Z,12.90
2023-05-11T03:33:07.117Z,12.90
2023-05-11T03:36:30.101Z,12.90
2023-05-11T03:39:56.206Z,12.90
2023-05-11T03:43:20.138Z,13.00
2023-05-11T03:46:45.404Z,12.90
2023-05-11T03:50:09.966Z,12.90
2023-05-11T03:53:32.035Z,12.90
2023-05-11T03:56:53.726Z,12.80
2023-05-11T04:00:16.469Z,12.80
2023-05-11T04:03:50.619Z,12.60
2023-05-11T04:07:12.460Z,12.70
2023-05-11T04:10:33.950Z,12.70
2023-05-11T04:13:55.536Z,12.70
2023-05-11T04:17:16.752Z,12.70
2023-05-11T04:20:39.455Z,12.60
2023-05-11T04:24:01.214Z,12.60
2023-05-11T04:27:22.613Z,12.70
2023-05-11T04:30:43.972Z,12.70
2023-05-11T04:34:08.235Z,12.70
2023-05-11T04:37:31.587Z,12.60
2023-05-11T04:40:53.255Z,12.50
2023-05-11T04:44:14.841Z,12.50
2023-05-11T04:47:36.411Z,12.60
2023-05-11T04:50:58.252Z,12.70
2023-05-11T04:54:20.873Z,12.60
2023-05-11T04:57:42.182Z,12.70
2023-05-11T05:01:03.385Z,12.60
2023-05-11T05:04:24.945Z,12.60
2023-05-11T05:07:46.776Z,12.60
2023-05-11T05:11:10.917Z,12.50
2023-05-11T05:14:32.353Z,12.60
2023-05-11T05:17:54.182Z,12.70
2023-05-11T05:21:16.001Z,12.70
2023-05-11T05:24:37.485Z,12.90
2023-05-11T05:28:00.213Z,12.90
2023-05-11T05:31:22.060Z,12.90
2023-05-11T05:34:43.692Z,12.90
2023-05-11T05:38:05.041Z,12.80
2023-05-11T05:41:27.736Z,12.80
2023-05-11T05:44:51.371Z,12.70
2023-05-11T05:48:12.909Z,12.70
2023-05-11T05:51:34.266Z,12.70
2023-05-11T05:54:55.596Z,12.90
2023-05-11T05:58:16.854Z,12.90
2023-05-11T06:01:45.314Z,12.90
2023-05-11T06:05:08.074Z,12.90
2023-05-11T06:08:29.853Z,12.90
2023-05-11T06:11:51.204Z,12.90
2023-05-11T06:15:13.642Z,12.90
2023-05-11T06:18:36.768Z,13.00
2023-05-11T06:21:58.181Z,13.10
2023-05-11T06:25:19.943Z,13.00
2023-05-11T06:28:41.517Z,13.10
2023-05-11T06:32:03.078Z,13.10
2023-05-11T06:35:26.561Z,13.10
2023-05-11T06:38:48.094Z,13.20
2023-05-11T06:42:09.517Z,13.10
2023-05-11T06:45:30.851Z,13.10
2023-05-11T06:48:52.470Z,13.20
2023-05-11T06:52:15.304Z,13.30
2023-05-11T06:55:36.640Z,13.40
2023-05-11T06:58:57.861Z,13.50
2023-05-11T07:02:19.406Z,13.60
2023-05-11T07:05:40.959Z,13.70
2023-05-11T07:09:04.032Z,13.70
2023-05-11T07:12:25.341Z,13.60
2023-05-11T07:15:46.672Z,13.70
2023-05-11T07:19:09.739Z,13.60
2023-05-11T07:22:31.301Z,13.70
2023-05-11T07:25:57.289Z,13.70
2023-05-11T07:29:18.849Z,13.80
2023-05-11T07:32:40.158Z,13.90
2023-05-11T07:36:01.844Z,13.90
2023-05-11T07:39:23.142Z,14.10
2023-05-11T07:42:45.798Z,14.00
2023-05-11T07:46:07.283Z,14.00
2023-05-11T07:49:39.992Z,14.00
2023-05-11T07:53:05.485Z,14.10
2023-05-11T07:56:27.326Z,14.10
2023-05-11T07:59:50.107Z,14.20
2023-05-11T08:03:11.382Z,14.20
2023-05-11T08:06:33.044Z,14.20
2023-05-11T08:09:54.625Z,14.20
2023-05-11T08:13:17.138Z,14.30
2023-05-11T08:16:39.963Z,14.30
2023-05-11T08:20:01.569Z,14.30
2023-05-11T08:23:23.104Z,14.40
2023-05-11T08:26:44.844Z,14.50
2023-05-11T08:30:08.931Z,14.60
2023-05-11T08:33:38.241Z,14.80
2023-05-11T08:37:01.686Z,14.80
2023-05-11T08:40:24.885Z,14.80
2023-05-11T08:43:47.082Z,14.70
2023-05-11T08:47:21.790Z,14.80
2023-05-11T08:50:46.001Z,14.70
2023-05-11T08:54:07.959Z,14.80
2023-05-11T08:57:32.290Z,14.70
2023-05-11T09:00:54.006Z,14.60
2023-05-11T09:04:16.557Z,14.60
2023-05-11T09:07:42.108Z,14.60
2023-05-11T09:11:04.397Z,14.60
2023-05-11T09:14:27.517Z,14.50
2023-05-11T09:17:49.189Z,14.50
2023-05-11T09:21:10.777Z,14.50
2023-05-11T09:24:33.739Z,14.50
2023-05-11T09:27:55.584Z,14.50
2023-05-11T09:31:41.593Z,14.50
2023-05-11T09:35:20.315Z,14.50
2023-05-11T09:38:41.991Z,14.40
2023-05-11T09:42:14.952Z,14.40
2023-05-11T09:45:40.904Z,14.40
2023-05-11T09:49:02.577Z,14.40
2023-05-11T09:52:24.181Z,14.50
2023-05-11T09:55:52.526Z,14.40
2023-05-11T09:59:16.648Z,14.40
2023-05-11T10:02:38.316Z,14.40
2023-05-11T10:06:01.534Z,14.40
2023-05-11T10:09:25.930Z,14.30
2023-05-11T10:12:47.483Z,14.40
2023-05-11T10:16:11.169Z,14.60
2023-05-11T10:19:33.892Z,14.70
2023-05-11T10:22:56.470Z,14.80
2023-05-11T10:26:17.837Z,14.90
2023-05-11T10:29:39.486Z,14.90
2023-05-11T10:33:03.040Z,15.00
2023-05-11T10:36:25.386Z,15.10
2023-05-11T10:39:49.952Z,15.10
2023-05-11T10:43:29.207Z,15.10
2023-05-11T10:47:08.613Z,15.10
2023-05-11T10:50:47.296Z,15.20
2023-05-11T10:54:26.242Z,15.30
2023-05-11T10:58:02.275Z,15.30
2023-05-11T11:01:37.475Z,15.40
2023-05-11T11:05:05.473Z,15.40
2023-05-11T11:08:28.953Z,15.40
2023-05-11T11:11:51.186Z,15.40
2023-05-11T11:15:12.675Z,15.50
2023-05-11T11:18:34.675Z,15.60
2023-05-11T11:21:56.816Z,15.70
2023-05-11T11:25:52.558Z,15.60
2023-05-11T11:29:14.472Z,15.60
2023-05-11T11:32:36.318Z,15.70
2023-05-11T11:35:57.969Z,15.80
2023-05-11T11:39:19.609Z,15.90
2023-05-11T11:42:44.094Z,15.90
2023-05-11T11:46:06.176Z,16.10
2023-05-11T11:49:28.570Z,16.10
2023-05-11T11:52:50.050Z,16.20
2023-05-11T11:56:39.009Z,16.30
2023-05-11T12:00:05.394Z,16.40
2023-05-11T12:03:27.522Z,16.60
2023-05-11T12:06:57.750Z,16.90
2023-05-11T12:10:20.574Z,17.20
2023-05-11T12:13:44.843Z,17.30
2023-05-11T12:17:13.435Z,17.20
2023-05-11T12:20:35.284Z,17.20
2023-05-11T12:23:58.648Z,17.40
2023-05-11T12:27:20.403Z,17.80
2023-05-11T12:30:42.288Z,18.10
2023-05-11T12:34:05.043Z,18.40
2023-05-11T12:37:26.894Z,18.50
2023-05-11T12:40:49.815Z,18.30
2023-05-11T12:44:11.425Z,18.20
2023-05-11T12:47:33.248Z,18.10
2023-05-11T12:50:56.846Z,17.90
2023-05-11T12:54:32.590Z,18.30
2023-05-11T12:57:54.907Z,19.20
2023-05-11T13:01:16.827Z,19.70
2023-05-11T13:04:39.710Z,19.60
2023-05-11T13:08:03.965Z,19.30
2023-05-11T13:11:26.922Z,19.20
2023-05-11T13:14:50.367Z,19.10
2023-05-11T13:18:18.042Z,18.80
2023-05-11T13:21:39.406Z,18.80
2023-05-11T13:25:06.217Z,18.90
2023-05-11T13:28:27.803Z,18.90
2023-05-11T13:31:50.935Z,19.20
2023-05-11T13:35:12.382Z,19.50
2023-05-11T13:38:33.780Z,19.60
2023-05-11T13:41:56.235Z,19.40
2023-05-11T13:45:17.914Z,19.30
2023-05-11T13:48:39.348Z,19.40
2023-05-11T13:52:01.348Z,19.50
2023-05-11T13:55:22.518Z,19.60
2023-05-11T13:58:45.340Z,19.60
2023-05-11T14:02:07.207Z,19.80
2023-05-11T14:05:29.302Z,19.90
2023-05-11T14:08:50.895Z,19.90
2023-05-11T14:12:12.166Z,19.90
2023-05-11T14:15:35.203Z,19.80
2023-05-11T14:18:56.911Z,19.60
2023-05-11T14:22:18.760Z,19.50
2023-05-11T14:25:39.983Z,19.20
2023-05-11T14:29:01.585Z,19.20
2023-05-11T14:32:24.658Z,19.30
2023-05-11T14:35:45.910Z,19.30
2023-05-11T14:39:07.237Z,19.30
2023-05-11T14:42:29.471Z,19.30
2023-05-11T14:45:51.165Z,19.40
2023-05-11T14:49:13.725Z,19.40
2023-05-11T14:52:35.529Z,19.40
2023-05-11T14:55:57.906Z,19.40
2023-05-11T14:59:19.608Z,19.50
2023-05-11T15:02:41.038Z,19.70
2023-05-11T15:06:03.916Z,19.80
2023-05-11T15:09:25.357Z,20.00
2023-05-11T15:12:46.821Z,20.30
2023-05-11T15:16:08.371Z,20.40
2023-05-11T15:19:29.751Z,20.50
2023-05-11T15:22:52.405Z,20.60
2023-05-11T15:26:14.496Z,20.70
2023-05-11T15:29:35.892Z,20.80
2023-05-11T15:32:57.465Z,20.70
2023-05-11T15:36:19.337Z,20.50
2023-05-11T15:39:42.454Z,20.40
2023-05-11T15:43:04.096Z,20.40
2023-05-11T15:46:25.609Z,20.20
2023-05-11T15:49:47.251Z,20.00
2023-05-11T15:53:08.764Z,19.90
2023-05-11T15:56:31.615Z,19.80
2023-05-11T15:59:53.180Z,19.90
2023-05-11T16:03:14.852Z,19.90
2023-05-11T16:06:36.383Z,19.90
2023-05-11T16:09:58.117Z,20.00
2023-05-11T16:13:20.861Z,19.80
2023-05-11T16:16:42.436Z,19.80
2023-05-11T16:20:04.593Z,19.80
2023-05-11T16:23:26.230Z,19.60
2023-05-11T16:26:47.769Z,19.50
2023-05-11T16:30:22.988Z,19.50
2023-05-11T16:33:46.145Z,19.40
2023-05-11T16:37:07.573Z,19.30
2023-05-11T16:40:29.002Z,19.20
2023-05-11T16:43:50.273Z,19.20
2023-05-11T16:47:12.937Z,19.20
2023-05-11T16:50:34.398Z,19.20
2023-05-11T16:53:57.264Z,19.20
2023-05-11T16:57:19.126Z,19.20
2023-05-11T17:00:40.993Z,19.10
2023-05-11T17:04:03.806Z,19.20
2023-05-11T17:07:26.774Z,19.20
2023-05-11T17:10:48.268Z,19.10
2023-05-11T17:14:09.504Z,19.10
2023-05-11T17:17:30.930Z,19.10
2023-05-11T17:20:57.465Z,19.00
2023-05-11T17:24:18.895Z,19.10
2023-05-11T17:27:40.863Z,19.10
2023-05-11T17:31:09.086Z,19.10
2023-05-11T17:34:31.174Z,19.10
2023-05-11T17:37:53.986Z,19.10
2023-05-11T17:41:15.477Z,19.00
2023-05-11T17:44:36.791Z,18.90
2023-05-11T17:47:58.339Z,18.90
2023-05-11T17:51:20.270Z,18.80
2023-05-11T17:54:43.167Z,18.80
2023-05-11T17:58:04.411Z,18.60
2023-05-11T18:01:27.370Z,18.60
2023-05-11T18:04:48.826Z,18.50
2023-05-11T18:08:10.507Z,18.40
2023-05-11T18:11:33.603Z,18.40
2023-05-11T18:14:54.894Z,18.50
2023-05-11T18:18:16.650Z,18.50
2023-05-11T18:21:38.336Z,18.40
2023-05-11T18:24:59.587Z,18.40
2023-05-11T18:28:22.059Z,18.40
2023-05-11T18:31:43.404Z,18.30
2023-05-11T18:35:05.219Z,18.20
2023-05-11T18:38:26.393Z,18.10
2023-05-11T18:41:47.957Z,18.00
2023-05-11T18:45:11.854Z,17.90
2023-05-11T18:48:33.667Z,17.90
2023-05-11T18:51:55.612Z,17.80
2023-05-11T18:55:17.515Z,17.70
2023-05-11T18:58:38.864Z,17.70
2023-05-11T19:02:01.705Z,17.60
2023-05-11T19:05:23.503Z,17.50
2023-05-11T19:08:45.031Z,17.50
2023-05-11T19:12:06.817Z,17.50
2023-05-11T19:15:28.320Z,17.40
2023-05-11T19:18:50.909Z,17.40
2023-05-11T19:22:12.100Z,17.30
2023-05-11T19:25:33.624Z,17.40
2023-05-11T19:28:55.191Z,17.30
2023-05-11T19:32:18.472Z,17.40
2023-05-11T19:35:41.374Z,17.30
2023-05-11T19:39:02.602Z,17.10
2023-05-11T19:42:38.395Z,17.10
2023-05-11T19:46:03.721Z,17.00
2023-05-11T19:49:25.579Z,17.00
2023-05-11T19:52:48.308Z,17.00
2023-05-11T19:56:09.773Z,16.90
2023-05-11T19:59:32.828Z,16.90
2023-05-11T20:02:55.054Z,17.00
2023-05-11T20:06:16.484Z,16.90
2023-05-11T20:09:39.554Z,16.90
2023-05-11T20:13:03.813Z,16.80
2023-05-11T20:16:25.018Z,16.70
2023-05-11T20:19:46.472Z,16.70
2023-05-11T20:23:07.755Z,16.60
2023-05-11T20:26:30.858Z,16.60
2023-05-11T20:29:52.659Z,16.50
2023-05-11T20:36:38.771Z,16.40
2023-05-11T20:40:00.082Z,16.40
2023-05-11T20:43:23.036Z,16.40
2023-05-11T20:46:44.639Z,16.30
2023-05-11T20:50:08.395Z,16.30
2023-05-11T20:53:30.864Z,16.20
2023-05-11T20:56:52.218Z,16.20
2023-05-11T21:00:16.200Z,16.20
2023-05-11T21:03:38.070Z,16.20
2023-05-11T21:06:59.773Z,16.20
2023-05-11T21:10:21.355Z,16.20
2023-05-11T21:13:42.993Z,16.20
2023-05-11T21:17:05.876Z,16.20
2023-05-11T21:20:27.555Z,16.20
2023-05-11T21:23:49.255Z,16.20
2023-05-11T21:27:11.075Z,16.20
2023-05-11T21:30:32.620Z,16.20
2023-05-11T21:33:55.562Z,16.20
2023-05-11T21:37:19.973Z,16.30
2023-05-11T21:40:42.049Z,16.30
2023-05-11T21:44:03.775Z,16.40
2023-05-11T21:47:25.362Z,16.40
2023-05-11T21:50:53.062Z,16.40
2023-05-11T21:54:14.605Z,16.40
2023-05-11T21:57:36.127Z,16.30
2023-05-11T22:00:57.982Z,16.10
2023-05-11T22:04:19.812Z,16.00
2023-05-11T22:07:43.054Z,15.90
2023-05-11T22:11:04.859Z,15.90
2023-05-11T22:14:26.545Z,15.70
2023-05-11T22:17:47.999Z,15.70
2023-05-11T22:21:09.478Z,15.60
2023-05-11T22:24:32.260Z,15.50
2023-05-11T22:27:53.676Z,15.40
2023-05-11T22:31:15.258Z,15.30
2023-05-11T22:34:36.736Z,15.20
2023-05-11T22:37:58.634Z,15.20
2023-05-11T22:41:21.912Z,15.20
2023-05-11T22:44:43.787Z,15.20
2023-05-11T22:48:06.601Z,15.20
2023-05-11T22:51:28.479Z,15.20
2023-05-11T22:54:54.478Z,15.20
2023-05-11T22:58:17.692Z,15.20
2023-05-11T23:01:39.429Z,15.10
2023-05-11T23:05:01.305Z,15.10
2023-05-11T23:08:23.000Z,15.00
2023-05-11T23:11:44.324Z,15.00
2023-05-11T23:15:08.372Z,14.90
2023-05-11T23:18:30.114Z,14.90
2023-05-11T23:21:51.608Z,14.90
2023-05-11T23:25:13.219Z,14.80
2023-05-11T23:28:35.060Z,14.70
2023-05-11T23:31:57.961Z,14.70
2023-05-11T23:35:19.270Z,14.60
2023-05-11T23:38:40.470Z,14.60
2023-05-11T23:42:01.818Z,14.50
2023-05-11T23:45:23.447Z,14.50
2023-05-11T23:48:46.597Z,14.40
2023-05-11T23:52:09.405Z,14.40
2023-05-11T23:55:30.814Z,14.40
2023-05-11T23:58:52.553Z,14.40
